Terminal Aerodrome Forecast
Issued by NWS Cleveland, OH

Home | Current Version | Previous Version | Graphics & Text | Print | Product List | Glossary On
Versions: 1 2 3 4 5 6 7 8 9 10 11 12 13 14
000
FTUS41 KCLE 232300
TAFYNG
TAF
KYNG 232324Z 2400/2424 30011KT P6SM SCT025 OVC035
     FM240600 29007KT P6SM SCT040
     FM241600 31012KT P6SM SCT050=

USA.gov is the U.S. government's official web portal to all federal, state and local government web resources and services.